sensor_id;sensor_type;location;lat;lon;timestamp;pressure;altitude;pressure_sealevel;temperature;humidity
63033;BME280;49121;38.932;-9.018;2023-03-03T00:00:52;111992.50;;;-145.11;72.48
63033;BME280;49121;38.932;-9.018;2023-03-03T00:02:55;111992.50;;;-145.11;72.98
63033;BME280;49121;38.932;-9.018;2023-03-03T00:04:57;111992.50;;;-145.11;73.12
63033;BME280;49121;38.932;-9.018;2023-03-03T00:06:57;111992.50;;;-145.11;73.32
63033;BME280;49121;38.932;-9.018;2023-03-03T00:08:58;111992.50;;;-145.11;73.07
63033;BME280;49121;38.932;-9.018;2023-03-03T00:10:59;111992.50;;;-145.11;73.23
63033;BME280;49121;38.932;-9.018;2023-03-03T00:13:00;111992.50;;;-145.11;73.30
63033;BME280;49121;38.932;-9.018;2023-03-03T00:15:01;111992.50;;;-145.11;73.35
63033;BME280;49121;38.932;-9.018;2023-03-03T00:17:15;111992.50;;;-145.11;73.62
63033;BME280;49121;38.932;-9.018;2023-03-03T00:19:19;111992.50;;;-145.11;73.84
63033;BME280;49121;38.932;-9.018;2023-03-03T00:21:24;111992.50;;;-145.11;74.13
63033;BME280;49121;38.932;-9.018;2023-03-03T00:25:33;111992.50;;;-145.11;74.58
63033;BME280;49121;38.932;-9.018;2023-03-03T00:27:34;111992.50;;;-145.11;74.61
63033;BME280;49121;38.932;-9.018;2023-03-03T00:29:39;111992.50;;;-145.11;74.56
63033;BME280;49121;38.932;-9.018;2023-03-03T00:31:40;111992.50;;;-145.11;74.47
63033;BME280;49121;38.932;-9.018;2023-03-03T00:33:52;111992.50;;;-145.11;74.70
63033;BME280;49121;38.932;-9.018;2023-03-03T00:35:56;111992.50;;;-145.11;75.14
63033;BME280;49121;38.932;-9.018;2023-03-03T00:37:58;111992.50;;;-145.11;75.23
63033;BME280;49121;38.932;-9.018;2023-03-03T00:40:15;111992.50;;;-145.11;75.50
63033;BME280;49121;38.932;-9.018;2023-03-03T00:42:18;111992.50;;;-145.11;75.66
63033;BME280;49121;38.932;-9.018;2023-03-03T00:46:40;111992.50;;;-145.11;76.19
63033;BME280;49121;38.932;-9.018;2023-03-03T00:49:00;111992.50;;;-145.11;76.17
63033;BME280;49121;38.932;-9.018;2023-03-03T00:51:06;111992.50;;;-145.11;76.03
63033;BME280;49121;38.932;-9.018;2023-03-03T00:53:18;111992.50;;;-145.11;76.29
63033;BME280;49121;38.932;-9.018;2023-03-03T00:55:19;111992.50;;;-145.11;76.17
63033;BME280;49121;38.932;-9.018;2023-03-03T00:57:20;111992.50;;;-145.11;76.18
63033;BME280;49121;38.932;-9.018;2023-03-03T00:59:21;111992.50;;;-145.11;76.65
63033;BME280;49121;38.932;-9.018;2023-03-03T01:01:22;111992.50;;;-145.11;76.35
63033;BME280;49121;38.932;-9.018;2023-03-03T01:03:26;111992.50;;;-145.11;76.38
63033;BME280;49121;38.932;-9.018;2023-03-03T01:05:27;111992.50;;;-145.11;76.62
63033;BME280;49121;38.932;-9.018;2023-03-03T01:07:47;111992.50;;;-145.11;76.56
63033;BME280;49121;38.932;-9.018;2023-03-03T01:10:06;111992.50;;;-145.11;76.82
63033;BME280;49121;38.932;-9.018;2023-03-03T01:12:08;111992.50;;;-145.11;76.74
63033;BME280;49121;38.932;-9.018;2023-03-03T01:14:09;111992.50;;;-145.11;77.34
63033;BME280;49121;38.932;-9.018;2023-03-03T01:16:10;111992.50;;;-145.11;77.22
63033;BME280;49121;38.932;-9.018;2023-03-03T01:18:11;111992.50;;;-145.11;77.48
63033;BME280;49121;38.932;-9.018;2023-03-03T01:20:14;111992.50;;;-145.11;77.39
63033;BME280;49121;38.932;-9.018;2023-03-03T01:22:14;111992.50;;;-145.11;77.82
63033;BME280;49121;38.932;-9.018;2023-03-03T01:24:19;111992.50;;;-145.11;77.86
63033;BME280;49121;38.932;-9.018;2023-03-03T01:26:20;111992.50;;;-145.11;78.14
63033;BME280;49121;38.932;-9.018;2023-03-03T01:28:21;111992.50;;;-145.11;78.39
63033;BME280;49121;38.932;-9.018;2023-03-03T01:30:22;111992.50;;;-145.11;78.37
63033;BME280;49121;38.932;-9.018;2023-03-03T01:32:23;111992.50;;;-145.11;78.63
63033;BME280;49121;38.932;-9.018;2023-03-03T01:34:24;111992.50;;;-145.11;79.22
63033;BME280;49121;38.932;-9.018;2023-03-03T01:36:26;111992.50;;;-145.11;79.56
63033;BME280;49121;38.932;-9.018;2023-03-03T01:38:27;111992.50;;;-145.11;79.32
63033;BME280;49121;38.932;-9.018;2023-03-03T01:40:30;111992.50;;;-145.11;79.62
63033;BME280;49121;38.932;-9.018;2023-03-03T01:42:31;111992.50;;;-145.11;79.36
63033;BME280;49121;38.932;-9.018;2023-03-03T01:44:33;111992.50;;;-145.11;79.34
63033;BME280;49121;38.932;-9.018;2023-03-03T01:48:39;111992.50;;;-145.11;79.25
63033;BME280;49121;38.932;-9.018;2023-03-03T01:51:03;111992.50;;;-145.11;78.64
63033;BME280;49121;38.932;-9.018;2023-03-03T01:53:11;111992.50;;;-145.11;78.85
63033;BME280;49121;38.932;-9.018;2023-03-03T01:55:19;111992.50;;;-145.11;78.50
63033;BME280;49121;38.932;-9.018;2023-03-03T01:57:31;111992.50;;;-145.11;78.58
63033;BME280;49121;38.932;-9.018;2023-03-03T01:59:40;111992.50;;;-145.11;78.67
63033;BME280;49121;38.932;-9.018;2023-03-03T02:01:42;111992.50;;;-145.11;78.97
63033;BME280;49121;38.932;-9.018;2023-03-03T02:03:43;111992.50;;;-145.11;79.18
63033;BME280;49121;38.932;-9.018;2023-03-03T02:05:44;111992.50;;;-145.11;79.21
63033;BME280;49121;38.932;-9.018;2023-03-03T02:07:45;111992.50;;;-145.11;78.96
63033;BME280;49121;38.932;-9.018;2023-03-03T02:10:06;111992.50;;;-145.11;79.17
63033;BME280;49121;38.932;-9.018;2023-03-03T02:12:11;111992.50;;;-145.11;78.88
63033;BME280;49121;38.932;-9.018;2023-03-03T02:14:13;111992.50;;;-145.11;79.32
63033;BME280;49121;38.932;-9.018;2023-03-03T02:16:16;111992.50;;;-145.11;79.06
63033;BME280;49121;38.932;-9.018;2023-03-03T02:18:19;111992.50;;;-145.11;79.04
63033;BME280;49121;38.932;-9.018;2023-03-03T02:25:02;111992.50;;;-145.11;79.89
63033;BME280;49121;38.932;-9.018;2023-03-03T02:27:05;111992.50;;;-145.11;79.68
63033;BME280;49121;38.932;-9.018;2023-03-03T02:29:07;111992.50;;;-145.11;79.95
63033;BME280;49121;38.932;-9.018;2023-03-03T02:31:14;111992.50;;;-145.11;80.03
63033;BME280;49121;38.932;-9.018;2023-03-03T02:33:17;111992.50;;;-145.11;80.64
63033;BME280;49121;38.932;-9.018;2023-03-03T02:35:32;111992.50;;;-145.11;81.01
63033;BME280;49121;38.932;-9.018;2023-03-03T02:37:34;111992.50;;;-145.11;81.12
63033;BME280;49121;38.932;-9.018;2023-03-03T02:39:35;111992.50;;;-145.11;81.26
63033;BME280;49121;38.932;-9.018;2023-03-03T02:41:43;111992.50;;;-145.11;81.28
63033;BME280;49121;38.932;-9.018;2023-03-03T02:45:52;111992.50;;;-145.11;81.74
63033;BME280;49121;38.932;-9.018;2023-03-03T02:47:53;111992.50;;;-145.11;81.88
63033;BME280;49121;38.932;-9.018;2023-03-03T02:49:54;111992.50;;;-145.11;81.84
63033;BME280;49121;38.932;-9.018;2023-03-03T02:51:54;111992.50;;;-145.11;81.88
63033;BME280;49121;38.932;-9.018;2023-03-03T02:53:55;111992.50;;;-145.11;81.51
63033;BME280;49121;38.932;-9.018;2023-03-03T02:55:57;111992.50;;;-145.11;81.80
63033;BME280;49121;38.932;-9.018;2023-03-03T02:57:58;111992.50;;;-145.11;81.38
63033;BME280;49121;38.932;-9.018;2023-03-03T03:00:00;111992.50;;;-145.11;81.48
63033;BME280;49121;38.932;-9.018;2023-03-03T03:02:01;111992.50;;;-145.11;81.45
63033;BME280;49121;38.932;-9.018;2023-03-03T03:06:07;111992.50;;;-145.11;81.54
63033;BME280;49121;38.932;-9.018;2023-03-03T03:08:08;111992.50;;;-145.11;81.53
63033;BME280;49121;38.932;-9.018;2023-03-03T03:10:09;111992.50;;;-145.11;81.63
63033;BME280;49121;38.932;-9.018;2023-03-03T03:12:12;111992.50;;;-145.11;81.70
63033;BME280;49121;38.932;-9.018;2023-03-03T03:14:34;111992.50;;;-145.11;81.80
63033;BME280;49121;38.932;-9.018;2023-03-03T03:16:35;111992.50;;;-145.11;82.66
63033;BME280;49121;38.932;-9.018;2023-03-03T03:18:36;111992.50;;;-145.11;82.83
63033;BME280;49121;38.932;-9.018;2023-03-03T03:20:37;111992.50;;;-145.11;82.70
63033;BME280;49121;38.932;-9.018;2023-03-03T03:22:43;111992.50;;;-145.11;82.75
63033;BME280;49121;38.932;-9.018;2023-03-03T03:24:44;111992.50;;;-145.11;83.04
63033;BME280;49121;38.932;-9.018;2023-03-03T03:26:45;111992.50;;;-145.11;83.29
63033;BME280;49121;38.932;-9.018;2023-03-03T03:28:49;111992.50;;;-145.11;83.26
63033;BME280;49121;38.932;-9.018;2023-03-03T03:30:55;111992.50;;;-145.11;83.20
63033;BME280;49121;38.932;-9.018;2023-03-03T03:32:56;111992.50;;;-145.11;83.75
63033;BME280;49121;38.932;-9.018;2023-03-03T03:35:07;111992.50;;;-145.11;83.78
63033;BME280;49121;38.932;-9.018;2023-03-03T03:37:09;111992.50;;;-145.11;83.10
63033;BME280;49121;38.932;-9.018;2023-03-03T03:39:11;111992.50;;;-145.11;83.52
63033;BME280;49121;38.932;-9.018;2023-03-03T03:41:15;111992.50;;;-145.11;83.54
63033;BME280;49121;38.932;-9.018;2023-03-03T03:43:16;111992.50;;;-145.11;83.77
63033;BME280;49121;38.932;-9.018;2023-03-03T03:45:18;111992.50;;;-145.11;83.44
63033;BME280;49121;38.932;-9.018;2023-03-03T03:47:20;111992.50;;;-145.11;83.98
63033;BME280;49121;38.932;-9.018;2023-03-03T03:49:21;111992.50;;;-145.11;83.65
63033;BME280;49121;38.932;-9.018;2023-03-03T03:51:23;111992.50;;;-145.11;83.56
63033;BME280;49121;38.932;-9.018;2023-03-03T03:53:25;111992.50;;;-145.11;84.11
63033;BME280;49121;38.932;-9.018;2023-03-03T03:55:25;111992.50;;;-145.11;84.26
63033;BME280;49121;38.932;-9.018;2023-03-03T03:57:26;111992.50;;;-145.11;84.48
63033;BME280;49121;38.932;-9.018;2023-03-03T03:59:27;111992.50;;;-145.11;84.77
63033;BME280;49121;38.932;-9.018;2023-03-03T04:01:28;111992.50;;;-145.11;84.44
63033;BME280;49121;38.932;-9.018;2023-03-03T04:03:29;111992.50;;;-145.11;84.53
63033;BME280;49121;38.932;-9.018;2023-03-03T04:05:30;111992.50;;;-145.11;85.18
63033;BME280;49121;38.932;-9.018;2023-03-03T04:07:31;111992.50;;;-145.11;85.66
63033;BME280;49121;38.932;-9.018;2023-03-03T04:09:32;111992.50;;;-145.11;85.51
63033;BME280;49121;38.932;-9.018;2023-03-03T04:11:33;111992.50;;;-145.11;85.32
63033;BME280;49121;38.932;-9.018;2023-03-03T04:13:34;111992.50;;;-145.11;85.73
63033;BME280;49121;38.932;-9.018;2023-03-03T04:15:35;111992.50;;;-145.11;85.40
63033;BME280;49121;38.932;-9.018;2023-03-03T04:17:36;111992.50;;;-145.11;85.74
63033;BME280;49121;38.932;-9.018;2023-03-03T04:19:41;111992.50;;;-145.11;85.44
63033;BME280;49121;38.932;-9.018;2023-03-03T04:21:43;111992.50;;;-145.11;85.74
63033;BME280;49121;38.932;-9.018;2023-03-03T04:23:44;111992.50;;;-145.11;85.53
63033;BME280;49121;38.932;-9.018;2023-03-03T04:25:48;111992.50;;;-145.11;85.46
63033;BME280;49121;38.932;-9.018;2023-03-03T04:27:49;111992.50;;;-145.11;85.11
63033;BME280;49121;38.932;-9.018;2023-03-03T04:29:52;111992.50;;;-145.11;85.22
63033;BME280;49121;38.932;-9.018;2023-03-03T04:31:53;111992.50;;;-145.11;85.03
63033;BME280;49121;38.932;-9.018;2023-03-03T04:34:13;111992.50;;;-145.11;85.03
63033;BME280;49121;38.932;-9.018;2023-03-03T04:36:16;111992.50;;;-145.11;85.00
63033;BME280;49121;38.932;-9.018;2023-03-03T04:38:17;111992.50;;;-145.11;84.63
63033;BME280;49121;38.932;-9.018;2023-03-03T04:40:19;111992.50;;;-145.11;84.99
63033;BME280;49121;38.932;-9.018;2023-03-03T04:42:23;111992.50;;;-145.11;84.76
63033;BME280;49121;38.932;-9.018;2023-03-03T04:44:23;111992.50;;;-145.11;84.54
63033;BME280;49121;38.932;-9.018;2023-03-03T04:46:25;111992.50;;;-145.11;84.33
63033;BME280;49121;38.932;-9.018;2023-03-03T04:48:27;111992.50;;;-145.11;84.79
63033;BME280;49121;38.932;-9.018;2023-03-03T04:50:28;111992.50;;;-145.11;84.70
63033;BME280;49121;38.932;-9.018;2023-03-03T04:52:29;111992.50;;;-145.11;84.73
63033;BME280;49121;38.932;-9.018;2023-03-03T04:54:30;111992.50;;;-145.11;84.49
63033;BME280;49121;38.932;-9.018;2023-03-03T04:56:30;111992.50;;;-145.11;84.67
63033;BME280;49121;38.932;-9.018;2023-03-03T04:58:31;111992.50;;;-145.11;84.60
63033;BME280;49121;38.932;-9.018;2023-03-03T05:00:32;111992.50;;;-145.11;84.41
63033;BME280;49121;38.932;-9.018;2023-03-03T05:02:34;111992.50;;;-145.11;84.82
63033;BME280;49121;38.932;-9.018;2023-03-03T05:04:35;111992.50;;;-145.11;85.01
63033;BME280;49121;38.932;-9.018;2023-03-03T05:06:35;111992.50;;;-145.11;84.58
63033;BME280;49121;38.932;-9.018;2023-03-03T05:08:36;111992.50;;;-145.11;84.22
63033;BME280;49121;38.932;-9.018;2023-03-03T05:10:37;111992.50;;;-145.11;85.00
63033;BME280;49121;38.932;-9.018;2023-03-03T05:12:38;111992.50;;;-145.11;84.68
63033;BME280;49121;38.932;-9.018;2023-03-03T05:14:38;111992.50;;;-145.11;84.43
63033;BME280;49121;38.932;-9.018;2023-03-03T05:19:21;111992.50;;;-145.11;84.50
63033;BME280;49121;38.932;-9.018;2023-03-03T05:21:21;111992.50;;;-145.11;84.57
63033;BME280;49121;38.932;-9.018;2023-03-03T05:23:22;111992.50;;;-145.11;84.25
63033;BME280;49121;38.932;-9.018;2023-03-03T05:25:23;111992.50;;;-145.11;83.93
63033;BME280;49121;38.932;-9.018;2023-03-03T05:27:23;111992.50;;;-145.11;83.50
63033;BME280;49121;38.932;-9.018;2023-03-03T05:29:30;111992.50;;;-145.11;83.56
63033;BME280;49121;38.932;-9.018;2023-03-03T05:31:30;111992.50;;;-145.11;83.41
63033;BME280;49121;38.932;-9.018;2023-03-03T05:33:31;111992.50;;;-145.11;83.18
63033;BME280;49121;38.932;-9.018;2023-03-03T05:35:32;111992.50;;;-145.11;82.79
63033;BME280;49121;38.932;-9.018;2023-03-03T05:37:33;111992.50;;;-145.11;82.81
63033;BME280;49121;38.932;-9.018;2023-03-03T05:39:34;111992.50;;;-145.11;82.52
63033;BME280;49121;38.932;-9.018;2023-03-03T05:41:35;111992.50;;;-145.11;83.10
63033;BME280;49121;38.932;-9.018;2023-03-03T05:43:54;111992.50;;;-145.11;83.46
63033;BME280;49121;38.932;-9.018;2023-03-03T05:45:59;111992.50;;;-145.11;83.78
63033;BME280;49121;38.932;-9.018;2023-03-03T05:48:00;111992.50;;;-145.11;83.73
63033;BME280;49121;38.932;-9.018;2023-03-03T05:50:01;111992.50;;;-145.11;83.56
63033;BME280;49121;38.932;-9.018;2023-03-03T05:52:01;111992.50;;;-145.11;83.13
63033;BME280;49121;38.932;-9.018;2023-03-03T05:54:02;111992.50;;;-145.11;83.72
63033;BME280;49121;38.932;-9.018;2023-03-03T05:56:03;111992.50;;;-145.11;83.81
63033;BME280;49121;38.932;-9.018;2023-03-03T05:58:03;111992.50;;;-145.11;83.71
63033;BME280;49121;38.932;-9.018;2023-03-03T06:00:05;111992.50;;;-145.11;83.97
63033;BME280;49121;38.932;-9.018;2023-03-03T06:02:12;111992.50;;;-145.11;83.92
63033;BME280;49121;38.932;-9.018;2023-03-03T06:04:13;111992.50;;;-145.11;83.62
63033;BME280;49121;38.932;-9.018;2023-03-03T06:06:14;111992.50;;;-145.11;83.81
63033;BME280;49121;38.932;-9.018;2023-03-03T06:08:16;111992.50;;;-145.11;84.15
63033;BME280;49121;38.932;-9.018;2023-03-03T06:10:17;111992.50;;;-145.11;84.03
63033;BME280;49121;38.932;-9.018;2023-03-03T06:12:21;111992.50;;;-145.11;83.71
63033;BME280;49121;38.932;-9.018;2023-03-03T06:14:22;111992.50;;;-145.11;84.10
63033;BME280;49121;38.932;-9.018;2023-03-03T06:16:23;111992.50;;;-145.11;84.72
63033;BME280;49121;38.932;-9.018;2023-03-03T06:18:23;111992.50;;;-145.11;84.36
63033;BME280;49121;38.932;-9.018;2023-03-03T06:20:24;111992.50;;;-145.11;84.62
63033;BME280;49121;38.932;-9.018;2023-03-03T06:22:43;111992.50;;;-145.11;84.71
63033;BME280;49121;38.932;-9.018;2023-03-03T06:25:06;111992.50;;;-145.11;84.99
63033;BME280;49121;38.932;-9.018;2023-03-03T06:27:08;111992.50;;;-145.11;84.93
63033;BME280;49121;38.932;-9.018;2023-03-03T06:29:09;111992.50;;;-145.11;85.01
63033;BME280;49121;38.932;-9.018;2023-03-03T06:31:10;111992.50;;;-145.11;84.88
63033;BME280;49121;38.932;-9.018;2023-03-03T06:33:10;111992.50;;;-145.11;85.14
63033;BME280;49121;38.932;-9.018;2023-03-03T06:35:11;111992.50;;;-145.11;84.99
63033;BME280;49121;38.932;-9.018;2023-03-03T06:37:12;111992.50;;;-145.11;85.65
63033;BME280;49121;38.932;-9.018;2023-03-03T06:39:12;111992.50;;;-145.11;85.66
63033;BME280;49121;38.932;-9.018;2023-03-03T06:41:13;111992.50;;;-145.11;85.36
63033;BME280;49121;38.932;-9.018;2023-03-03T06:43:14;111992.50;;;-145.11;85.13
63033;BME280;49121;38.932;-9.018;2023-03-03T06:45:14;111992.50;;;-145.11;85.12
63033;BME280;49121;38.932;-9.018;2023-03-03T06:47:15;111992.50;;;-145.11;84.79
63033;BME280;49121;38.932;-9.018;2023-03-03T06:49:16;111992.50;;;-145.11;84.80
63033;BME280;49121;38.932;-9.018;2023-03-03T06:51:35;111992.50;;;-145.11;84.93
63033;BME280;49121;38.932;-9.018;2023-03-03T06:53:37;111992.50;;;-145.11;85.54
63033;BME280;49121;38.932;-9.018;2023-03-03T06:55:39;111992.50;;;-145.11;84.95
63033;BME280;49121;38.932;-9.018;2023-03-03T06:57:43;111992.50;;;-145.11;84.90
63033;BME280;49121;38.932;-9.018;2023-03-03T06:59:46;111992.50;;;-145.11;85.38
63033;BME280;49121;38.932;-9.018;2023-03-03T07:02:16;111992.50;;;-145.11;85.58
63033;BME280;49121;38.932;-9.018;2023-03-03T07:04:32;111992.50;;;-145.11;85.69
63033;BME280;49121;38.932;-9.018;2023-03-03T07:06:33;111992.50;;;-145.11;85.02
63033;BME280;49121;38.932;-9.018;2023-03-03T07:08:34;111992.50;;;-145.11;84.71
63033;BME280;49121;38.932;-9.018;2023-03-03T07:10:35;111992.50;;;-145.11;85.09
63033;BME280;49121;38.932;-9.018;2023-03-03T07:12:35;111992.50;;;-145.11;85.22
63033;BME280;49121;38.932;-9.018;2023-03-03T07:14:42;111992.50;;;-145.11;85.13
63033;BME280;49121;38.932;-9.018;2023-03-03T07:16:43;111992.50;;;-145.11;85.47
63033;BME280;49121;38.932;-9.018;2023-03-03T07:20:52;111992.50;;;-145.11;84.84
63033;BME280;49121;38.932;-9.018;2023-03-03T07:22:53;111992.50;;;-145.11;84.57
63033;BME280;49121;38.932;-9.018;2023-03-03T07:24:56;111992.50;;;-145.11;84.62
63033;BME280;49121;38.932;-9.018;2023-03-03T07:29:42;111992.50;;;-145.11;84.82
63033;BME280;49121;38.932;-9.018;2023-03-03T07:31:47;111992.50;;;-145.11;84.30
63033;BME280;49121;38.932;-9.018;2023-03-03T07:33:48;111992.50;;;-145.11;84.23
63033;BME280;49121;38.932;-9.018;2023-03-03T07:35:48;111992.50;;;-145.11;84.33
63033;BME280;49121;38.932;-9.018;2023-03-03T07:37:49;111992.50;;;-145.11;83.88
63033;BME280;49121;38.932;-9.018;2023-03-03T07:39:50;111992.50;;;-145.11;83.42
63033;BME280;49121;38.932;-9.018;2023-03-03T07:41:51;111992.50;;;-145.11;83.54
63033;BME280;49121;38.932;-9.018;2023-03-03T07:44:20;111992.50;;;-145.11;84.52
63033;BME280;49121;38.932;-9.018;2023-03-03T07:46:41;111992.50;;;-145.11;84.35
63033;BME280;49121;38.932;-9.018;2023-03-03T07:48:43;111992.50;;;-145.11;82.61
63033;BME280;49121;38.932;-9.018;2023-03-03T07:50:44;111992.50;;;-145.11;80.04
63033;BME280;49121;38.932;-9.018;2023-03-03T07:52:56;111992.50;;;-145.11;78.17
63033;BME280;49121;38.932;-9.018;2023-03-03T07:55:00;111992.50;;;-145.11;74.31
63033;BME280;49121;38.932;-9.018;2023-03-03T07:57:14;111992.50;;;-145.11;72.24
63033;BME280;49121;38.932;-9.018;2023-03-03T07:59:24;111992.50;;;-145.11;68.02
63033;BME280;49121;38.932;-9.018;2023-03-03T08:01:36;111992.50;;;-145.11;65.01
63033;BME280;49121;38.932;-9.018;2023-03-03T08:03:39;111992.50;;;-145.11;63.25
63033;BME280;49121;38.932;-9.018;2023-03-03T08:05:59;111992.50;;;-145.11;63.05
63033;BME280;49121;38.932;-9.018;2023-03-03T08:08:29;111992.50;;;-145.11;62.74
63033;BME280;49121;38.932;-9.018;2023-03-03T08:10:45;111992.50;;;-145.11;62.80
63033;BME280;49121;38.932;-9.018;2023-03-03T08:12:47;111992.50;;;-145.11;62.32
63033;BME280;49121;38.932;-9.018;2023-03-03T08:14:50;111992.50;;;-145.11;60.51
63033;BME280;49121;38.932;-9.018;2023-03-03T08:16:51;111992.50;;;-145.11;58.44
63033;BME280;49121;38.932;-9.018;2023-03-03T08:18:55;111992.50;;;-145.11;57.49
63033;BME280;49121;38.932;-9.018;2023-03-03T08:23:16;111992.50;;;-145.11;55.42
63033;BME280;49121;38.932;-9.018;2023-03-03T08:25:19;111992.50;;;-145.11;52.80
63033;BME280;49121;38.932;-9.018;2023-03-03T08:27:20;111992.50;;;-145.11;53.33
63033;BME280;49121;38.932;-9.018;2023-03-03T08:29:22;111992.50;;;-145.11;52.54
63033;BME280;49121;38.932;-9.018;2023-03-03T08:31:23;111992.50;;;-145.11;51.32
63033;BME280;49121;38.932;-9.018;2023-03-03T08:33:23;111992.50;;;-145.11;50.77
63033;BME280;49121;38.932;-9.018;2023-03-03T08:35:24;111992.50;;;-145.11;48.66
63033;BME280;49121;38.932;-9.018;2023-03-03T08:37:24;111992.50;;;-145.11;49.05
63033;BME280;49121;38.932;-9.018;2023-03-03T08:39:25;111992.50;;;-145.11;50.85
63033;BME280;49121;38.932;-9.018;2023-03-03T08:41:25;111992.50;;;-145.11;51.57
63033;BME280;49121;38.932;-9.018;2023-03-03T08:43:26;111992.50;;;-145.11;52.03
63033;BME280;49121;38.932;-9.018;2023-03-03T08:45:28;111992.50;;;-145.11;51.81
63033;BME280;49121;38.932;-9.018;2023-03-03T08:47:29;111992.50;;;-145.11;52.02
63033;BME280;49121;38.932;-9.018;2023-03-03T08:49:29;111992.50;;;-145.11;52.31
63033;BME280;49121;38.932;-9.018;2023-03-03T08:51:30;111992.50;;;-145.11;53.51
63033;BME280;49121;38.932;-9.018;2023-03-03T08:53:33;111992.50;;;-145.11;52.37
63033;BME280;49121;38.932;-9.018;2023-03-03T08:55:37;111992.50;;;-145.11;52.95
63033;BME280;49121;38.932;-9.018;2023-03-03T08:57:39;111992.50;;;-145.11;53.32
63033;BME280;49121;38.932;-9.018;2023-03-03T08:59:45;111992.50;;;-145.11;54.16
63033;BME280;49121;38.932;-9.018;2023-03-03T09:01:47;111992.50;;;-145.11;53.37
63033;BME280;49121;38.932;-9.018;2023-03-03T09:03:47;111992.50;;;-145.11;52.91
63033;BME280;49121;38.932;-9.018;2023-03-03T09:05:48;111992.50;;;-145.11;53.33
63033;BME280;49121;38.932;-9.018;2023-03-03T09:07:49;111992.50;;;-145.11;54.48
63033;BME280;49121;38.932;-9.018;2023-03-03T09:09:50;111992.50;;;-145.11;58.49
63033;BME280;49121;38.932;-9.018;2023-03-03T09:11:57;111992.50;;;-145.11;60.76
63033;BME280;49121;38.932;-9.018;2023-03-03T09:14:10;111992.50;;;-145.11;62.91
63033;BME280;49121;38.932;-9.018;2023-03-03T09:16:14;111992.50;;;-145.11;63.12
63033;BME280;49121;38.932;-9.018;2023-03-03T09:18:21;111992.50;;;-145.11;63.28
63033;BME280;49121;38.932;-9.018;2023-03-03T09:20:34;111992.50;;;-145.11;62.95
63033;BME280;49121;38.932;-9.018;2023-03-03T09:22:36;111992.50;;;-145.11;63.89
63033;BME280;49121;38.932;-9.018;2023-03-03T09:24:37;111992.50;;;-145.11;63.31
63033;BME280;49121;38.932;-9.018;2023-03-03T09:28:38;111992.50;;;-145.11;65.10
63033;BME280;49121;38.932;-9.018;2023-03-03T09:30:39;111992.50;;;-145.11;65.79
63033;BME280;49121;38.932;-9.018;2023-03-03T09:32:45;111992.50;;;-145.11;65.44
63033;BME280;49121;38.932;-9.018;2023-03-03T09:34:46;111992.50;;;-145.11;65.35
63033;BME280;49121;38.932;-9.018;2023-03-03T09:36:47;111992.50;;;-145.11;65.37
63033;BME280;49121;38.932;-9.018;2023-03-03T09:38:50;111992.50;;;-145.11;65.03
63033;BME280;49121;38.932;-9.018;2023-03-03T09:43:09;111992.50;;;-145.11;65.29
63033;BME280;49121;38.932;-9.018;2023-03-03T09:54:26;111992.50;;;-145.11;64.90
63033;BME280;49121;38.932;-9.018;2023-03-03T09:57:04;111992.50;;;-145.11;64.09
63033;BME280;49121;38.932;-9.018;2023-03-03T10:07:06;111992.50;;;-145.11;63.07
63033;BME280;49121;38.932;-9.018;2023-03-03T10:12:00;111992.50;;;-145.11;59.59
63033;BME280;49121;38.932;-9.018;2023-03-03T10:16:48;111992.50;;;-145.11;58.75
63033;BME280;49121;38.932;-9.018;2023-03-03T10:19:20;111992.50;;;-145.11;58.75
63033;BME280;49121;38.932;-9.018;2023-03-03T10:21:32;111992.50;;;-145.11;58.09
63033;BME280;49121;38.932;-9.018;2023-03-03T10:23:54;111992.50;;;-145.11;57.24
63033;BME280;49121;38.932;-9.018;2023-03-03T10:26:11;111992.50;;;-145.11;56.78
63033;BME280;49121;38.932;-9.018;2023-03-03T10:31:19;111992.50;;;-145.11;55.62
63033;BME280;49121;38.932;-9.018;2023-03-03T10:43:04;111992.50;;;-145.11;57.73
63033;BME280;49121;38.932;-9.018;2023-03-03T10:45:30;111992.50;;;-145.11;58.15
63033;BME280;49121;38.932;-9.018;2023-03-03T10:50:32;111992.50;;;-145.11;56.24
63033;BME280;49121;38.932;-9.018;2023-03-03T10:52:42;111992.50;;;-145.11;56.78
63033;BME280;49121;38.932;-9.018;2023-03-03T10:55:01;111992.50;;;-145.11;56.58
63033;BME280;49121;38.932;-9.018;2023-03-03T11:01:34;111992.50;;;-145.11;56.78
63033;BME280;49121;38.932;-9.018;2023-03-03T11:06:02;111992.50;;;-145.11;54.72
63033;BME280;49121;38.932;-9.018;2023-03-03T11:08:25;111992.50;;;-145.11;55.46
63033;BME280;49121;38.932;-9.018;2023-03-03T11:15:32;111992.50;;;-145.11;54.16
63033;BME280;49121;38.932;-9.018;2023-03-03T11:20:15;111992.50;;;-145.11;54.55
63033;BME280;49121;38.932;-9.018;2023-03-03T11:22:43;111992.50;;;-145.11;53.69
63033;BME280;49121;38.932;-9.018;2023-03-03T11:29:27;111992.50;;;-145.11;53.00
63033;BME280;49121;38.932;-9.018;2023-03-03T11:31:48;111992.50;;;-145.11;52.92
63033;BME280;49121;38.932;-9.018;2023-03-03T11:36:31;111992.50;;;-145.11;52.71
63033;BME280;49121;38.932;-9.018;2023-03-03T11:40:53;111992.50;;;-145.11;51.57
63033;BME280;49121;38.932;-9.018;2023-03-03T11:43:13;111992.50;;;-145.11;51.75
63033;BME280;49121;38.932;-9.018;2023-03-03T11:45:20;111992.50;;;-145.11;51.44
63033;BME280;49121;38.932;-9.018;2023-03-03T11:49:50;111992.50;;;-145.11;49.70
63033;BME280;49121;38.932;-9.018;2023-03-03T11:51:55;111992.50;;;-145.11;49.04
63033;BME280;49121;38.932;-9.018;2023-03-03T11:54:18;111992.50;;;-145.11;48.78
63033;BME280;49121;38.932;-9.018;2023-03-03T11:56:34;111992.50;;;-145.11;47.20
63033;BME280;49121;38.932;-9.018;2023-03-03T11:58:47;111992.50;;;-145.11;46.66
63033;BME280;49121;38.932;-9.018;2023-03-03T12:03:53;111992.50;;;-145.11;48.24